createdAt,value
2017-06-16T19:09:11.294Z,195
2017-06-16T19:10:21.311Z,210
2017-06-16T19:11:31.326Z,190
2017-06-16T19:12:40.392Z,195
2017-06-16T19:13:50.416Z,185
2017-06-16T19:15:00.113Z,175
2017-06-16T19:16:10.131Z,170
2017-06-16T19:17:19.518Z,155
2017-06-16T19:18:29.527Z,150
2017-06-16T19:19:39.222Z,140
2017-06-16T19:20:49.242Z,130
2017-06-16T19:21:58.627Z,130
2017-06-16T19:23:08.956Z,140
2017-06-16T19:24:18.966Z,135
2017-06-16T19:25:28.663Z,130
2017-06-16T19:26:38.045Z,120
2017-06-16T19:27:48.050Z,120
2017-06-16T19:28:57.120Z,110
2017-06-16T19:30:07.129Z,105
2017-06-16T19:31:16.518Z,100
2017-06-16T19:32:26.883Z,95
2017-06-16T19:33:36.631Z,85
2017-06-16T19:34:46.366Z,85
2017-06-16T19:35:56.388Z,75
2017-06-16T19:37:05.794Z,60
2017-06-16T19:38:16.149Z,65
2017-06-16T19:39:25.872Z,55
2017-06-16T19:40:35.573Z,45
2017-06-16T19:41:45.590Z,40
2017-06-16T19:42:55.651Z,40
2017-06-16T19:44:05.658Z,40
2017-06-16T19:45:15.047Z,35
2017-06-16T19:46:25.369Z,30
2017-06-16T19:47:34.446Z,30
2017-06-16T19:48:44.772Z,30
2017-06-16T19:49:54.178Z,25
2017-06-16T19:51:03.557Z,25
2017-06-16T19:52:13.569Z,20
2017-06-16T19:53:23.576Z,20
2017-06-16T19:54:33.589Z,15
2017-06-16T19:55:43.301Z,15
2017-06-16T19:56:53.023Z,15
2017-06-16T19:58:02.717Z,15
2017-06-16T19:59:12.411Z,10
2017-06-16T20:00:21.789Z,10
2017-06-16T20:01:32.117Z,10
2017-06-16T20:02:42.140Z,10
2017-06-16T20:03:52.153Z,10
2017-06-16T20:05:02.168Z,5
2017-06-16T20:06:11.861Z,5
2017-06-16T20:07:21.870Z,5
2017-06-16T20:08:31.879Z,5
2017-06-16T20:09:41.888Z,5
2017-06-16T20:10:51.285Z,5
2017-06-16T20:12:01.607Z,0
2017-06-16T20:13:11.321Z,0
2017-06-16T20:14:21.011Z,0
2017-06-16T20:15:30.724Z,0
2017-06-16T20:16:40.734Z,0
2017-06-16T20:17:50.112Z,0
2017-06-16T20:19:00.127Z,0
2017-06-16T20:20:09.822Z,0
2017-06-16T20:21:18.886Z,0
2017-06-16T20:22:28.582Z,0
2017-06-16T20:23:37.963Z,0
2017-06-16T20:24:47.032Z,0
2017-06-16T20:25:56.414Z,0
2017-06-16T20:27:05.802Z,0
2017-06-16T20:28:15.183Z,0
2017-06-16T20:29:25.187Z,0
2017-06-16T20:30:34.879Z,0
2017-06-16T20:31:44.577Z,0
2017-06-16T20:32:54.273Z,0
2017-06-16T20:34:03.971Z,0
2017-06-16T20:35:13.665Z,0
2017-06-16T20:36:23.988Z,0
2017-06-16T20:37:33.399Z,0
2017-06-16T20:38:43.089Z,0
2017-06-16T20:39:52.474Z,0
2017-06-16T20:41:01.853Z,0
2017-06-16T20:42:11.550Z,0
2017-06-16T20:43:21.246Z,0
2017-06-16T20:44:31.251Z,0
2017-06-16T20:45:40.638Z,0
2017-06-16T20:46:50.661Z,0
2017-06-16T20:48:00.987Z,0
2017-06-16T20:49:10.681Z,0
2017-06-16T20:50:20.408Z,0
2017-06-16T20:51:30.415Z,0
2017-06-16T20:52:40.106Z,0
2017-06-16T20:53:49.811Z,0
2017-06-16T20:54:59.205Z,0
2017-06-16T20:56:09.539Z,0
2017-06-16T20:57:18.924Z,0
2017-06-16T20:58:28.938Z,0
2017-06-16T20:59:39.259Z,0
2017-06-16T21:00:48.638Z,0
2017-06-16T21:01:58.331Z,0
2017-06-16T21:03:08.339Z,0
2017-06-16T21:04:17.716Z,0
2017-06-16T21:05:27.733Z,0
2017-06-16T21:06:37.743Z,0
2017-06-16T21:07:47.753Z,0
2017-06-16T21:08:57.761Z,0
2017-06-16T21:10:07.147Z,0
2017-06-16T21:11:17.160Z,0
2017-06-16T21:12:27.180Z,0
2017-06-16T21:13:37.799Z,0
2017-06-16T21:14:47.502Z,0
2017-06-16T21:15:56.600Z,0
2017-06-16T21:17:06.410Z,0
2017-06-16T21:18:16.131Z,0
2017-06-16T21:19:26.579Z,0
2017-06-16T21:20:35.705Z,0
2017-06-16T21:21:45.524Z,0
2017-06-16T21:22:55.899Z,0
2017-06-16T21:24:05.983Z,0
2017-06-16T21:25:15.730Z,0
2017-06-16T21:26:25.467Z,0
2017-06-16T21:27:35.212Z,0
2017-06-16T21:28:44.653Z,0
2017-06-16T21:29:54.735Z,0
2017-06-16T21:31:04.801Z,0
2017-06-16T21:32:15.192Z,0
2017-06-16T21:33:24.935Z,0
2017-06-16T21:34:34.673Z,0
2017-06-16T21:35:44.392Z,0
2017-06-16T21:36:54.156Z,0
2017-06-16T21:38:03.896Z,0
2017-06-16T21:39:13.979Z,0
2017-06-16T21:40:23.443Z,0
2017-06-16T21:41:33.194Z,0
2017-06-16T21:42:43.283Z,0
2017-06-16T21:43:52.037Z,0
2017-06-16T21:45:01.800Z,0
2017-06-16T21:46:11.881Z,0
2017-06-16T21:47:20.694Z,0
2017-06-16T21:48:29.807Z,0
2017-06-16T21:49:39.867Z,0
2017-06-16T21:50:49.627Z,0
2017-06-16T21:51:59.423Z,0
2017-06-16T21:53:09.212Z,0
2017-06-16T21:54:18.637Z,0
2017-06-16T21:55:28.690Z,0
2017-06-16T21:56:39.236Z,0
2017-06-16T21:57:49.329Z,0
2017-06-16T21:58:59.030Z,0
2017-06-16T22:00:09.041Z,0
2017-06-16T22:01:19.054Z,0
2017-06-16T22:02:29.061Z,0
2017-06-16T22:03:38.755Z,0
2017-06-16T22:04:48.133Z,0
2017-06-16T22:05:58.461Z,0
2017-06-16T22:07:08.471Z,0
2017-06-16T22:08:18.161Z,0
2017-06-16T22:09:27.227Z,0
2017-06-16T22:10:37.547Z,0
2017-06-16T22:11:47.563Z,0
2017-06-16T22:12:57.570Z,0
2017-06-16T22:14:07.575Z,0
2017-06-16T22:15:17.268Z,0
2017-06-16T22:16:27.278Z,0
2017-06-16T22:17:36.968Z,0
2017-06-16T22:18:47.290Z,0
2017-06-16T22:19:56.358Z,0
2017-06-16T22:21:06.048Z,0
2017-06-16T22:22:16.054Z,0
2017-06-16T22:23:26.063Z,0
2017-06-16T22:24:35.749Z,0
2017-06-16T22:25:45.443Z,0
2017-06-16T22:26:55.455Z,0
2017-06-16T22:28:05.152Z,0
2017-06-16T22:29:15.474Z,0
2017-06-16T22:30:25.796Z,0
2017-06-16T22:31:35.805Z,0
2017-06-16T22:32:45.181Z,0
2017-06-16T22:33:55.185Z,0
2017-06-16T22:35:04.876Z,0
2017-06-16T22:36:14.881Z,0
2017-06-16T22:37:24.887Z,0
2017-06-16T22:38:35.209Z,0
2017-06-16T22:39:45.529Z,0
2017-06-16T22:40:54.909Z,0
2017-06-16T22:42:04.290Z,0
2017-06-16T22:43:13.984Z,0
2017-06-16T22:44:23.678Z,0
2017-06-16T22:45:33.374Z,0
2017-06-16T22:46:43.379Z,0
2017-06-16T22:47:53.410Z,0
2017-06-16T22:49:03.733Z,0
2017-06-16T22:50:13.430Z,0
2017-06-16T22:51:23.756Z,0
2017-06-16T22:52:34.076Z,0
2017-06-16T22:53:43.771Z,0
2017-06-16T22:54:54.095Z,0
2017-06-16T22:56:04.108Z,0
2017-06-16T22:57:14.120Z,0
2017-06-16T22:58:24.440Z,0
2017-06-16T22:59:34.442Z,0
2017-06-16T23:00:44.470Z,0
2017-06-16T23:01:54.475Z,0
2017-06-16T23:03:04.797Z,0
2017-06-16T23:04:14.500Z,0
2017-06-16T23:05:24.189Z,0
2017-06-16T23:06:33.571Z,0
2017-06-16T23:07:43.265Z,0
2017-06-16T23:08:53.277Z,0
2017-06-16T23:10:03.289Z,0
2017-06-16T23:11:13.304Z,0
2017-06-16T23:12:23.627Z,0
2017-06-16T23:13:33.012Z,0
2017-06-16T23:14:42.701Z,0
2017-06-16T23:15:52.706Z,0
2017-06-16T23:17:01.764Z,0
2017-06-16T23:18:11.145Z,0
2017-06-16T23:19:21.467Z,0
2017-06-16T23:20:31.471Z,0
2017-06-16T23:21:41.162Z,0
2017-06-16T23:22:51.175Z,0
2017-06-16T23:24:01.186Z,0
2017-06-16T23:25:11.195Z,0
2017-06-16T23:26:20.894Z,0
2017-06-16T23:27:30.279Z,0
2017-06-16T23:28:39.975Z,0
2017-06-16T23:29:49.667Z,0
2017-06-16T23:30:59.676Z,0
2017-06-16T23:32:09.685Z,0
2017-06-16T23:33:19.689Z,0
2017-06-16T23:34:29.694Z,0
2017-06-16T23:35:39.388Z,0
2017-06-16T23:36:49.082Z,0
2017-06-16T23:37:58.459Z,0
2017-06-16T23:39:08.153Z,0
2017-06-16T23:40:18.163Z,0
2017-06-16T23:41:27.854Z,0
2017-06-16T23:42:37.864Z,0
2017-06-16T23:43:47.554Z,0
2017-06-16T23:44:57.245Z,0
2017-06-16T23:46:07.253Z,0
2017-06-16T23:47:16.950Z,0
2017-06-16T23:48:26.959Z,0
2017-06-16T23:49:36.651Z,0
2017-06-16T23:50:46.360Z,0
2017-06-16T23:51:56.683Z,0
2017-06-16T23:53:05.748Z,0
2017-06-16T23:54:15.443Z,0
2017-06-16T23:55:24.824Z,0
2017-06-16T23:56:35.146Z,0
2017-06-16T23:57:44.839Z,0
2017-06-16T23:58:54.535Z,0
